sensor_id;sensor_type;location;lat;lon;timestamp;P1;durP1;ratioP1;P2;durP2;ratioP2
79410;SDS011;69635;50.964;6.948;2023-04-24T00:01:12;5.05;;;1.20;;
79410;SDS011;69635;50.964;6.948;2023-04-24T00:03:38;6.22;;;1.85;;
79410;SDS011;69635;50.964;6.948;2023-04-24T00:06:04;5.55;;;1.33;;
79410;SDS011;69635;50.964;6.948;2023-04-24T00:08:31;6.40;;;1.50;;
79410;SDS011;69635;50.964;6.948;2023-04-24T00:10:57;3.47;;;0.90;;
79410;SDS011;69635;50.964;6.948;2023-04-24T00:13:22;4.15;;;1.33;;
79410;SDS011;69635;50.964;6.948;2023-04-24T00:15:48;7.88;;;1.23;;
79410;SDS011;69635;50.964;6.948;2023-04-24T00:18:13;7.90;;;1.88;;
79410;SDS011;69635;50.964;6.948;2023-04-24T00:20:38;4.55;;;1.40;;
79410;SDS011;69635;50.964;6.948;2023-04-24T00:23:04;3.70;;;1.10;;
79410;SDS011;69635;50.964;6.948;2023-04-24T00:25:30;7.32;;;1.10;;
79410;SDS011;69635;50.964;6.948;2023-04-24T00:27:56;4.03;;;1.10;;
79410;SDS011;69635;50.964;6.948;2023-04-24T00:30:21;4.05;;;1.02;;
79410;SDS011;69635;50.964;6.948;2023-04-24T00:32:47;5.53;;;1.20;;
79410;SDS011;69635;50.964;6.948;2023-04-24T00:35:12;4.10;;;0.90;;
79410;SDS011;69635;50.964;6.948;2023-04-24T00:37:37;3.28;;;1.10;;
79410;SDS011;69635;50.964;6.948;2023-04-24T00:40:03;5.65;;;1.65;;
79410;SDS011;69635;50.964;6.948;2023-04-24T00:42:29;7.60;;;1.20;;
79410;SDS011;69635;50.964;6.948;2023-04-24T00:44:55;3.75;;;1.10;;
79410;SDS011;69635;50.964;6.948;2023-04-24T00:47:21;4.72;;;0.90;;
79410;SDS011;69635;50.964;6.948;2023-04-24T00:49:47;5.00;;;1.20;;
79410;SDS011;69635;50.964;6.948;2023-04-24T00:52:12;3.15;;;1.08;;
79410;SDS011;69635;50.964;6.948;2023-04-24T00:54:42;3.65;;;0.90;;
79410;SDS011;69635;50.964;6.948;2023-04-24T00:57:09;2.53;;;1.00;;
79410;SDS011;69635;50.964;6.948;2023-04-24T00:59:34;3.15;;;0.93;;
79410;SDS011;69635;50.964;6.948;2023-04-24T01:02:01;3.13;;;0.85;;
79410;SDS011;69635;50.964;6.948;2023-04-24T01:04:26;7.70;;;1.10;;
79410;SDS011;69635;50.964;6.948;2023-04-24T01:06:52;1.85;;;0.80;;
79410;SDS011;69635;50.964;6.948;2023-04-24T01:09:19;3.03;;;1.05;;
79410;SDS011;69635;50.964;6.948;2023-04-24T01:11:48;5.60;;;1.20;;
79410;SDS011;69635;50.964;6.948;2023-04-24T01:14:14;3.78;;;1.50;;
79410;SDS011;69635;50.964;6.948;2023-04-24T01:16:39;1.98;;;0.80;;
79410;SDS011;69635;50.964;6.948;2023-04-24T01:19:06;2.13;;;0.90;;
79410;SDS011;69635;50.964;6.948;2023-04-24T01:21:32;4.78;;;1.17;;
79410;SDS011;69635;50.964;6.948;2023-04-24T01:24:01;3.63;;;0.82;;
79410;SDS011;69635;50.964;6.948;2023-04-24T01:26:27;2.97;;;1.00;;
79410;SDS011;69635;50.964;6.948;2023-04-24T01:28:53;2.38;;;0.82;;
79410;SDS011;69635;50.964;6.948;2023-04-24T01:31:18;2.90;;;0.75;;
79410;SDS011;69635;50.964;6.948;2023-04-24T01:33:44;5.32;;;1.13;;
79410;SDS011;69635;50.964;6.948;2023-04-24T01:36:10;2.25;;;0.75;;
79410;SDS011;69635;50.964;6.948;2023-04-24T01:38:36;2.75;;;0.80;;
79410;SDS011;69635;50.964;6.948;2023-04-24T01:41:02;4.60;;;1.02;;
79410;SDS011;69635;50.964;6.948;2023-04-24T01:43:28;2.05;;;0.70;;
79410;SDS011;69635;50.964;6.948;2023-04-24T01:45:53;3.35;;;1.10;;
79410;SDS011;69635;50.964;6.948;2023-04-24T01:48:19;5.50;;;0.82;;
79410;SDS011;69635;50.964;6.948;2023-04-24T01:50:45;4.25;;;0.90;;
79410;SDS011;69635;50.964;6.948;2023-04-24T01:53:10;4.15;;;1.27;;
79410;SDS011;69635;50.964;6.948;2023-04-24T01:55:36;3.67;;;1.40;;
79410;SDS011;69635;50.964;6.948;2023-04-24T01:58:01;2.10;;;1.10;;
79410;SDS011;69635;50.964;6.948;2023-04-24T02:00:27;3.60;;;1.27;;
79410;SDS011;69635;50.964;6.948;2023-04-24T02:02:52;4.03;;;1.05;;
79410;SDS011;69635;50.964;6.948;2023-04-24T02:05:18;2.13;;;0.93;;
79410;SDS011;69635;50.964;6.948;2023-04-24T02:07:43;2.92;;;0.88;;
79410;SDS011;69635;50.964;6.948;2023-04-24T02:10:09;4.68;;;1.70;;
79410;SDS011;69635;50.964;6.948;2023-04-24T02:12:35;2.28;;;0.80;;
79410;SDS011;69635;50.964;6.948;2023-04-24T02:15:00;5.03;;;1.73;;
79410;SDS011;69635;50.964;6.948;2023-04-24T02:17:26;2.35;;;0.80;;
79410;SDS011;69635;50.964;6.948;2023-04-24T02:19:51;4.82;;;1.20;;
79410;SDS011;69635;50.964;6.948;2023-04-24T02:22:16;4.65;;;1.15;;
79410;SDS011;69635;50.964;6.948;2023-04-24T02:24:42;1.70;;;1.00;;
79410;SDS011;69635;50.964;6.948;2023-04-24T02:27:07;3.80;;;1.42;;
79410;SDS011;69635;50.964;6.948;2023-04-24T02:29:33;6.22;;;1.20;;
79410;SDS011;69635;50.964;6.948;2023-04-24T02:31:58;3.55;;;0.95;;
79410;SDS011;69635;50.964;6.948;2023-04-24T02:34:24;3.53;;;1.00;;
79410;SDS011;69635;50.964;6.948;2023-04-24T02:36:49;4.68;;;1.20;;
79410;SDS011;69635;50.964;6.948;2023-04-24T02:39:15;2.75;;;1.00;;
79410;SDS011;69635;50.964;6.948;2023-04-24T02:41:43;2.78;;;1.05;;
79410;SDS011;69635;50.964;6.948;2023-04-24T02:44:09;2.28;;;1.58;;
79410;SDS011;69635;50.964;6.948;2023-04-24T02:46:34;5.72;;;1.15;;
79410;SDS011;69635;50.964;6.948;2023-04-24T02:49:00;5.00;;;1.33;;
79410;SDS011;69635;50.964;6.948;2023-04-24T02:51:25;2.38;;;1.50;;
79410;SDS011;69635;50.964;6.948;2023-04-24T02:53:51;2.45;;;0.93;;
79410;SDS011;69635;50.964;6.948;2023-04-24T02:56:17;3.47;;;1.13;;
79410;SDS011;69635;50.964;6.948;2023-04-24T02:58:42;3.50;;;1.15;;
79410;SDS011;69635;50.964;6.948;2023-04-24T03:01:08;4.88;;;1.05;;
79410;SDS011;69635;50.964;6.948;2023-04-24T03:03:35;4.20;;;1.10;;
79410;SDS011;69635;50.964;6.948;2023-04-24T03:06:00;2.97;;;1.10;;
79410;SDS011;69635;50.964;6.948;2023-04-24T03:08:26;2.80;;;1.27;;
79410;SDS011;69635;50.964;6.948;2023-04-24T03:10:52;1.52;;;1.10;;
79410;SDS011;69635;50.964;6.948;2023-04-24T03:13:17;5.28;;;1.27;;
79410;SDS011;69635;50.964;6.948;2023-04-24T03:15:42;1.77;;;1.08;;
79410;SDS011;69635;50.964;6.948;2023-04-24T03:18:08;3.20;;;1.58;;
79410;SDS011;69635;50.964;6.948;2023-04-24T03:20:33;4.13;;;1.00;;
79410;SDS011;69635;50.964;6.948;2023-04-24T03:22:59;2.17;;;1.20;;
79410;SDS011;69635;50.964;6.948;2023-04-24T03:25:24;4.80;;;1.40;;
79410;SDS011;69635;50.964;6.948;2023-04-24T03:27:50;2.53;;;1.30;;
79410;SDS011;69635;50.964;6.948;2023-04-24T03:30:15;1.55;;;1.00;;
79410;SDS011;69635;50.964;6.948;2023-04-24T03:32:40;3.70;;;1.33;;
79410;SDS011;69635;50.964;6.948;2023-04-24T03:35:06;3.55;;;1.50;;
79410;SDS011;69635;50.964;6.948;2023-04-24T03:37:33;3.22;;;1.10;;
79410;SDS011;69635;50.964;6.948;2023-04-24T03:39:59;2.83;;;1.10;;
79410;SDS011;69635;50.964;6.948;2023-04-24T03:42:25;3.03;;;1.48;;
79410;SDS011;69635;50.964;6.948;2023-04-24T03:44:50;4.43;;;1.45;;
79410;SDS011;69635;50.964;6.948;2023-04-24T03:47:15;3.20;;;1.13;;
79410;SDS011;69635;50.964;6.948;2023-04-24T03:49:41;2.03;;;1.23;;
79410;SDS011;69635;50.964;6.948;2023-04-24T03:52:06;4.05;;;1.30;;
79410;SDS011;69635;50.964;6.948;2023-04-24T03:54:32;3.38;;;1.48;;
79410;SDS011;69635;50.964;6.948;2023-04-24T03:56:57;8.68;;;1.33;;
79410;SDS011;69635;50.964;6.948;2023-04-24T03:59:22;5.75;;;1.40;;
79410;SDS011;69635;50.964;6.948;2023-04-24T04:01:48;5.95;;;1.33;;
79410;SDS011;69635;50.964;6.948;2023-04-24T04:04:13;9.35;;;1.50;;
79410;SDS011;69635;50.964;6.948;2023-04-24T04:06:39;6.25;;;1.30;;
79410;SDS011;69635;50.964;6.948;2023-04-24T04:09:04;9.27;;;1.80;;
79410;SDS011;69635;50.964;6.948;2023-04-24T04:11:30;4.55;;;1.40;;
79410;SDS011;69635;50.964;6.948;2023-04-24T04:13:55;5.68;;;1.90;;
79410;SDS011;69635;50.964;6.948;2023-04-24T04:16:21;3.70;;;1.48;;
79410;SDS011;69635;50.964;6.948;2023-04-24T04:18:47;3.90;;;2.17;;
79410;SDS011;69635;50.964;6.948;2023-04-24T04:21:13;4.32;;;1.58;;
79410;SDS011;69635;50.964;6.948;2023-04-24T04:23:38;4.15;;;1.42;;
79410;SDS011;69635;50.964;6.948;2023-04-24T04:26:04;5.68;;;1.40;;
79410;SDS011;69635;50.964;6.948;2023-04-24T04:28:30;3.65;;;1.67;;
79410;SDS011;69635;50.964;6.948;2023-04-24T04:30:56;4.35;;;1.75;;
79410;SDS011;69635;50.964;6.948;2023-04-24T04:33:22;2.83;;;1.45;;
79410;SDS011;69635;50.964;6.948;2023-04-24T04:35:51;5.60;;;1.77;;
79410;SDS011;69635;50.964;6.948;2023-04-24T04:38:21;7.18;;;1.83;;
79410;SDS011;69635;50.964;6.948;2023-04-24T04:40:47;4.55;;;1.50;;
79410;SDS011;69635;50.964;6.948;2023-04-24T04:43:12;2.08;;;1.30;;
79410;SDS011;69635;50.964;6.948;2023-04-24T04:45:39;4.32;;;1.65;;
79410;SDS011;69635;50.964;6.948;2023-04-24T04:48:07;12.43;;;2.97;;
79410;SDS011;69635;50.964;6.948;2023-04-24T04:50:34;4.22;;;1.40;;
79410;SDS011;69635;50.964;6.948;2023-04-24T04:53:00;2.97;;;1.40;;
79410;SDS011;69635;50.964;6.948;2023-04-24T04:55:25;3.33;;;1.40;;
79410;SDS011;69635;50.964;6.948;2023-04-24T04:57:51;2.40;;;1.40;;
79410;SDS011;69635;50.964;6.948;2023-04-24T05:00:17;2.92;;;1.30;;
79410;SDS011;69635;50.964;6.948;2023-04-24T05:02:43;2.40;;;1.30;;
79410;SDS011;69635;50.964;6.948;2023-04-24T05:05:08;4.05;;;1.40;;
79410;SDS011;69635;50.964;6.948;2023-04-24T05:07:34;3.60;;;1.60;;
79410;SDS011;69635;50.964;6.948;2023-04-24T05:09:59;2.53;;;1.40;;
79410;SDS011;69635;50.964;6.948;2023-04-24T05:12:25;5.05;;;2.05;;
79410;SDS011;69635;50.964;6.948;2023-04-24T05:14:50;3.13;;;1.40;;
79410;SDS011;69635;50.964;6.948;2023-04-24T05:17:16;2.05;;;1.30;;
79410;SDS011;69635;50.964;6.948;2023-04-24T05:19:42;2.88;;;1.40;;
79410;SDS011;69635;50.964;6.948;2023-04-24T05:22:07;2.47;;;1.27;;
79410;SDS011;69635;50.964;6.948;2023-04-24T05:24:34;2.05;;;1.58;;
79410;SDS011;69635;50.964;6.948;2023-04-24T05:27:00;3.58;;;1.48;;
79410;SDS011;69635;50.964;6.948;2023-04-24T05:29:27;2.40;;;1.42;;
79410;SDS011;69635;50.964;6.948;2023-04-24T05:31:52;3.88;;;1.45;;
79410;SDS011;69635;50.964;6.948;2023-04-24T05:34:18;1.88;;;1.40;;
79410;SDS011;69635;50.964;6.948;2023-04-24T05:36:43;3.03;;;1.40;;
79410;SDS011;69635;50.964;6.948;2023-04-24T05:39:09;3.28;;;1.58;;
79410;SDS011;69635;50.964;6.948;2023-04-24T05:41:34;2.90;;;1.33;;
79410;SDS011;69635;50.964;6.948;2023-04-24T05:43:59;2.25;;;1.30;;
79410;SDS011;69635;50.964;6.948;2023-04-24T05:46:25;1.60;;;1.23;;
79410;SDS011;69635;50.964;6.948;2023-04-24T05:48:50;1.42;;;1.10;;
79410;SDS011;69635;50.964;6.948;2023-04-24T05:51:16;2.88;;;1.30;;
79410;SDS011;69635;50.964;6.948;2023-04-24T05:53:41;4.50;;;1.50;;
79410;SDS011;69635;50.964;6.948;2023-04-24T05:56:06;2.25;;;1.30;;
79410;SDS011;69635;50.964;6.948;2023-04-24T05:58:32;3.65;;;1.48;;
79410;SDS011;69635;50.964;6.948;2023-04-24T06:00:57;2.20;;;1.50;;
79410;SDS011;69635;50.964;6.948;2023-04-24T06:03:23;1.92;;;1.10;;
79410;SDS011;69635;50.964;6.948;2023-04-24T06:05:52;1.35;;;1.10;;
79410;SDS011;69635;50.964;6.948;2023-04-24T06:08:17;3.00;;;1.85;;
79410;SDS011;69635;50.964;6.948;2023-04-24T06:10:43;2.47;;;1.20;;
79410;SDS011;69635;50.964;6.948;2023-04-24T06:13:08;4.20;;;1.42;;
79410;SDS011;69635;50.964;6.948;2023-04-24T06:15:33;3.85;;;1.50;;
79410;SDS011;69635;50.964;6.948;2023-04-24T06:17:59;2.33;;;1.10;;
79410;SDS011;69635;50.964;6.948;2023-04-24T06:20:24;6.47;;;1.60;;
79410;SDS011;69635;50.964;6.948;2023-04-24T06:22:50;4.28;;;1.50;;
79410;SDS011;69635;50.964;6.948;2023-04-24T06:25:16;6.60;;;1.73;;
79410;SDS011;69635;50.964;6.948;2023-04-24T06:27:41;6.93;;;1.90;;
79410;SDS011;69635;50.964;6.948;2023-04-24T06:30:07;9.07;;;1.60;;
79410;SDS011;69635;50.964;6.948;2023-04-24T06:32:33;14.98;;;1.70;;
79410;SDS011;69635;50.964;6.948;2023-04-24T06:34:58;9.07;;;1.50;;
79410;SDS011;69635;50.964;6.948;2023-04-24T06:37:23;9.05;;;1.83;;
79410;SDS011;69635;50.964;6.948;2023-04-24T06:39:49;10.50;;;1.48;;
79410;SDS011;69635;50.964;6.948;2023-04-24T06:42:14;7.78;;;1.80;;
79410;SDS011;69635;50.964;6.948;2023-04-24T06:44:40;22.85;;;2.47;;
79410;SDS011;69635;50.964;6.948;2023-04-24T06:47:11;14.23;;;2.40;;
79410;SDS011;69635;50.964;6.948;2023-04-24T06:49:40;15.30;;;2.45;;
79410;SDS011;69635;50.964;6.948;2023-04-24T06:52:07;8.40;;;1.73;;
79410;SDS011;69635;50.964;6.948;2023-04-24T06:54:32;11.85;;;1.98;;
79410;SDS011;69635;50.964;6.948;2023-04-24T06:57:01;12.13;;;2.30;;
79410;SDS011;69635;50.964;6.948;2023-04-24T06:59:27;10.00;;;1.80;;
79410;SDS011;69635;50.964;6.948;2023-04-24T07:01:53;22.58;;;2.28;;
79410;SDS011;69635;50.964;6.948;2023-04-24T07:04:19;14.88;;;2.95;;
79410;SDS011;69635;50.964;6.948;2023-04-24T07:06:45;17.77;;;2.33;;
79410;SDS011;69635;50.964;6.948;2023-04-24T07:09:11;8.88;;;1.67;;
79410;SDS011;69635;50.964;6.948;2023-04-24T07:11:38;16.25;;;1.80;;
79410;SDS011;69635;50.964;6.948;2023-04-24T07:14:05;13.45;;;2.53;;
79410;SDS011;69635;50.964;6.948;2023-04-24T07:16:31;11.35;;;1.88;;
79410;SDS011;69635;50.964;6.948;2023-04-24T07:18:56;11.90;;;2.00;;
79410;SDS011;69635;50.964;6.948;2023-04-24T07:21:22;9.07;;;2.22;;
79410;SDS011;69635;50.964;6.948;2023-04-24T07:23:47;12.52;;;1.98;;
79410;SDS011;69635;50.964;6.948;2023-04-24T07:26:12;14.50;;;2.88;;
79410;SDS011;69635;50.964;6.948;2023-04-24T07:28:39;6.65;;;1.40;;
79410;SDS011;69635;50.964;6.948;2023-04-24T07:31:05;15.77;;;2.22;;
79410;SDS011;69635;50.964;6.948;2023-04-24T07:33:31;15.10;;;2.05;;
79410;SDS011;69635;50.964;6.948;2023-04-24T07:35:56;9.40;;;1.52;;
79410;SDS011;69635;50.964;6.948;2023-04-24T07:38:21;7.88;;;1.40;;
79410;SDS011;69635;50.964;6.948;2023-04-24T07:40:47;12.02;;;1.77;;
79410;SDS011;69635;50.964;6.948;2023-04-24T07:43:13;8.40;;;1.00;;
79410;SDS011;69635;50.964;6.948;2023-04-24T07:45:39;14.38;;;2.83;;
79410;SDS011;69635;50.964;6.948;2023-04-24T07:48:05;12.15;;;1.58;;
79410;SDS011;69635;50.964;6.948;2023-04-24T07:50:30;6.30;;;1.13;;
79410;SDS011;69635;50.964;6.948;2023-04-24T07:52:56;6.97;;;1.48;;
79410;SDS011;69635;50.964;6.948;2023-04-24T07:57:55;10.63;;;1.60;;
79410;SDS011;69635;50.964;6.948;2023-04-24T08:00:20;14.90;;;2.25;;
79410;SDS011;69635;50.964;6.948;2023-04-24T08:02:45;20.67;;;2.80;;
79410;SDS011;69635;50.964;6.948;2023-04-24T08:05:11;15.25;;;2.08;;
79410;SDS011;69635;50.964;6.948;2023-04-24T08:07:36;20.67;;;1.75;;
79410;SDS011;69635;50.964;6.948;2023-04-24T08:10:02;23.98;;;2.05;;
79410;SDS011;69635;50.964;6.948;2023-04-24T08:12:29;34.20;;;2.97;;
79410;SDS011;69635;50.964;6.948;2023-04-24T08:14:54;71.25;;;4.65;;
79410;SDS011;69635;50.964;6.948;2023-04-24T08:17:20;44.20;;;4.57;;
79410;SDS011;69635;50.964;6.948;2023-04-24T08:19:45;63.42;;;5.13;;
79410;SDS011;69635;50.964;6.948;2023-04-24T08:22:13;59.42;;;5.82;;
79410;SDS011;69635;50.964;6.948;2023-04-24T08:24:40;31.50;;;4.40;;
79410;SDS011;69635;50.964;6.948;2023-04-24T08:27:05;51.20;;;5.05;;
79410;SDS011;69635;50.964;6.948;2023-04-24T08:29:31;47.25;;;5.55;;
79410;SDS011;69635;50.964;6.948;2023-04-24T08:31:56;50.58;;;4.47;;
79410;SDS011;69635;50.964;6.948;2023-04-24T08:34:22;23.67;;;3.25;;
79410;SDS011;69635;50.964;6.948;2023-04-24T08:36:48;24.52;;;3.28;;
79410;SDS011;69635;50.964;6.948;2023-04-24T08:39:13;25.55;;;2.50;;
79410;SDS011;69635;50.964;6.948;2023-04-24T08:41:41;24.52;;;2.58;;
79410;SDS011;69635;50.964;6.948;2023-04-24T08:44:10;23.65;;;2.10;;
79410;SDS011;69635;50.964;6.948;2023-04-24T08:46:37;25.90;;;2.55;;
79410;SDS011;69635;50.964;6.948;2023-04-24T08:49:05;22.83;;;2.25;;
79410;SDS011;69635;50.964;6.948;2023-04-24T08:51:31;25.77;;;2.70;;
79410;SDS011;69635;50.964;6.948;2023-04-24T08:53:56;27.73;;;3.42;;
79410;SDS011;69635;50.964;6.948;2023-04-24T08:56:22;24.45;;;2.13;;
79410;SDS011;69635;50.964;6.948;2023-04-24T08:58:51;22.25;;;2.90;;
79410;SDS011;69635;50.964;6.948;2023-04-24T09:01:19;24.13;;;1.92;;
79410;SDS011;69635;50.964;6.948;2023-04-24T09:03:45;16.15;;;1.77;;
79410;SDS011;69635;50.964;6.948;2023-04-24T09:08:39;16.15;;;2.17;;
79410;SDS011;69635;50.964;6.948;2023-04-24T09:11:06;22.73;;;2.08;;
79410;SDS011;69635;50.964;6.948;2023-04-24T09:13:32;20.92;;;2.50;;
79410;SDS011;69635;50.964;6.948;2023-04-24T09:15:58;16.48;;;2.67;;
79410;SDS011;69635;50.964;6.948;2023-04-24T09:18:25;17.35;;;2.40;;
79410;SDS011;69635;50.964;6.948;2023-04-24T09:20:58;10.73;;;2.13;;
79410;SDS011;69635;50.964;6.948;2023-04-24T09:23:26;11.60;;;2.60;;
79410;SDS011;69635;50.964;6.948;2023-04-24T09:25:56;12.80;;;2.30;;
79410;SDS011;69635;50.964;6.948;2023-04-24T09:28:29;13.38;;;1.30;;
79410;SDS011;69635;50.964;6.948;2023-04-24T09:31:14;14.35;;;1.48;;
79410;SDS011;69635;50.964;6.948;2023-04-24T09:33:56;10.60;;;1.40;;
79410;SDS011;69635;50.964;6.948;2023-04-24T09:36:29;20.08;;;2.25;;
79410;SDS011;69635;50.964;6.948;2023-04-24T09:39:06;13.50;;;1.98;;
79410;SDS011;69635;50.964;6.948;2023-04-24T09:41:46;24.52;;;2.53;;
79410;SDS011;69635;50.964;6.948;2023-04-24T09:44:14;18.50;;;2.72;;
79410;SDS011;69635;50.964;6.948;2023-04-24T09:46:44;24.52;;;3.00;;
79410;SDS011;69635;50.964;6.948;2023-04-24T09:49:14;26.58;;;2.75;;
79410;SDS011;69635;50.964;6.948;2023-04-24T09:51:41;11.75;;;2.88;;
79410;SDS011;69635;50.964;6.948;2023-04-24T09:54:20;16.30;;;2.22;;
79410;SDS011;69635;50.964;6.948;2023-04-24T09:56:47;17.10;;;2.20;;
79410;SDS011;69635;50.964;6.948;2023-04-24T09:59:15;13.27;;;1.85;;
79410;SDS011;69635;50.964;6.948;2023-04-24T10:01:41;15.57;;;1.73;;
79410;SDS011;69635;50.964;6.948;2023-04-24T10:06:41;16.63;;;2.75;;
79410;SDS011;69635;50.964;6.948;2023-04-24T10:09:08;26.88;;;2.20;;
79410;SDS011;69635;50.964;6.948;2023-04-24T10:11:35;21.50;;;3.05;;
79410;SDS011;69635;50.964;6.948;2023-04-24T10:14:01;19.77;;;2.92;;
79410;SDS011;69635;50.964;6.948;2023-04-24T10:16:28;19.50;;;2.50;;
79410;SDS011;69635;50.964;6.948;2023-04-24T10:18:56;17.00;;;2.28;;
79410;SDS011;69635;50.964;6.948;2023-04-24T10:21:24;16.67;;;2.75;;
79410;SDS011;69635;50.964;6.948;2023-04-24T10:23:51;13.70;;;1.40;;
79410;SDS011;69635;50.964;6.948;2023-04-24T10:26:17;12.23;;;1.65;;
79410;SDS011;69635;50.964;6.948;2023-04-24T10:28:47;10.65;;;1.50;;
79410;SDS011;69635;50.964;6.948;2023-04-24T10:33:39;7.93;;;1.13;;
79410;SDS011;69635;50.964;6.948;2023-04-24T10:36:07;9.95;;;1.33;;
79410;SDS011;69635;50.964;6.948;2023-04-24T10:38:34;6.95;;;0.93;;
79410;SDS011;69635;50.964;6.948;2023-04-24T10:41:08;10.77;;;1.58;;
79410;SDS011;69635;50.964;6.948;2023-04-24T10:43:34;12.05;;;1.45;;
79410;SDS011;69635;50.964;6.948;2023-04-24T10:46:04;7.15;;;1.33;;
79410;SDS011;69635;50.964;6.948;2023-04-24T10:48:32;5.80;;;0.80;;
79410;SDS011;69635;50.964;6.948;2023-04-24T10:50:57;10.43;;;1.88;;
79410;SDS011;69635;50.964;6.948;2023-04-24T10:53:24;5.63;;;1.02;;
79410;SDS011;69635;50.964;6.948;2023-04-24T10:58:37;10.35;;;1.10;;
79410;SDS011;69635;50.964;6.948;2023-04-24T11:01:03;5.30;;;1.30;;
79410;SDS011;69635;50.964;6.948;2023-04-24T11:03:33;5.93;;;0.80;;
79410;SDS011;69635;50.964;6.948;2023-04-24T11:08:31;7.60;;;0.80;;
79410;SDS011;69635;50.964;6.948;2023-04-24T11:11:11;4.95;;;0.82;;
79410;SDS011;69635;50.964;6.948;2023-04-24T11:14:22;4.07;;;0.77;;
79410;SDS011;69635;50.964;6.948;2023-04-24T11:18:52;6.13;;;1.30;;
79410;SDS011;69635;50.964;6.948;2023-04-24T11:21:25;6.57;;;1.02;;
79410;SDS011;69635;50.964;6.948;2023-04-24T11:23:56;7.85;;;1.27;;
79410;SDS011;69635;50.964;6.948;2023-04-24T11:26:22;11.68;;;1.83;;
79410;SDS011;69635;50.964;6.948;2023-04-24T11:29:05;7.68;;;1.13;;
79410;SDS011;69635;50.964;6.948;2023-04-24T11:34:12;5.97;;;1.08;;
79410;SDS011;69635;50.964;6.948;2023-04-24T11:36:39;4.07;;;0.90;;
79410;SDS011;69635;50.964;6.948;2023-04-24T11:39:07;4.30;;;1.13;;
79410;SDS011;69635;50.964;6.948;2023-04-24T11:41:33;8.55;;;1.00;;
79410;SDS011;69635;50.964;6.948;2023-04-24T11:43:58;5.28;;;1.13;;
79410;SDS011;69635;50.964;6.948;2023-04-24T11:46:28;2.78;;;0.80;;
79410;SDS011;69635;50.964;6.948;2023-04-24T11:48:55;9.05;;;1.98;;
79410;SDS011;69635;50.964;6.948;2023-04-24T11:51:22;6.68;;;1.00;;
79410;SDS011;69635;50.964;6.948;2023-04-24T11:53:49;3.90;;;0.85;;
79410;SDS011;69635;50.964;6.948;2023-04-24T11:56:17;3.42;;;0.60;;
79410;SDS011;69635;50.964;6.948;2023-04-24T11:58:44;4.90;;;1.02;;
79410;SDS011;69635;50.964;6.948;2023-04-24T12:01:10;2.65;;;0.80;;
79410;SDS011;69635;50.964;6.948;2023-04-24T12:03:36;5.53;;;0.75;;
79410;SDS011;69635;50.964;6.948;2023-04-24T12:06:04;3.58;;;0.70;;
79410;SDS011;69635;50.964;6.948;2023-04-24T12:08:34;6.75;;;1.38;;
79410;SDS011;69635;50.964;6.948;2023-04-24T12:11:00;4.82;;;0.75;;
79410;SDS011;69635;50.964;6.948;2023-04-24T12:13:30;3.40;;;0.90;;
79410;SDS011;69635;50.964;6.948;2023-04-24T12:15:58;2.75;;;0.90;;
79410;SDS011;69635;50.964;6.948;2023-04-24T12:18:24;2.33;;;0.50;;
79410;SDS011;69635;50.964;6.948;2023-04-24T12:20:50;3.45;;;0.70;;
79410;SDS011;69635;50.964;6.948;2023-04-24T12:23:16;4.13;;;0.73;;
79410;SDS011;69635;50.964;6.948;2023-04-24T12:25:42;4.20;;;0.88;;
79410;SDS011;69635;50.964;6.948;2023-04-24T12:28:12;6.60;;;0.70;;
79410;SDS011;69635;50.964;6.948;2023-04-24T12:30:41;3.08;;;0.63;;
79410;SDS011;69635;50.964;6.948;2023-04-24T12:33:09;4.25;;;0.57;;
79410;SDS011;69635;50.964;6.948;2023-04-24T12:35:35;2.10;;;0.52;;
79410;SDS011;69635;50.964;6.948;2023-04-24T12:38:13;1.33;;;0.50;;
79410;SDS011;69635;50.964;6.948;2023-04-24T12:40:40;3.70;;;0.88;;
79410;SDS011;69635;50.964;6.948;2023-04-24T12:43:17;1.90;;;0.60;;
79410;SDS011;69635;50.964;6.948;2023-04-24T12:45:48;4.63;;;0.90;;
79410;SDS011;69635;50.964;6.948;2023-04-24T12:48:14;3.85;;;0.50;;
79410;SDS011;69635;50.964;6.948;2023-04-24T12:50:39;1.85;;;0.75;;
79410;SDS011;69635;50.964;6.948;2023-04-24T12:53:05;2.35;;;0.90;;
79410;SDS011;69635;50.964;6.948;2023-04-24T12:55:31;4.63;;;0.63;;
79410;SDS011;69635;50.964;6.948;2023-04-24T12:57:56;3.33;;;0.52;;
79410;SDS011;69635;50.964;6.948;2023-04-24T13:00:23;4.13;;;0.80;;
79410;SDS011;69635;50.964;6.948;2023-04-24T13:02:48;4.00;;;0.60;;
79410;SDS011;69635;50.964;6.948;2023-04-24T13:05:14;2.38;;;0.85;;
79410;SDS011;69635;50.964;6.948;2023-04-24T13:07:40;5.03;;;0.77;;
79410;SDS011;69635;50.964;6.948;2023-04-24T13:10:06;2.00;;;0.52;;
79410;SDS011;69635;50.964;6.948;2023-04-24T13:12:32;2.45;;;0.77;;
79410;SDS011;69635;50.964;6.948;2023-04-24T13:14:57;3.42;;;1.13;;
79410;SDS011;69635;50.964;6.948;2023-04-24T13:17:24;3.33;;;0.90;;
79410;SDS011;69635;50.964;6.948;2023-04-24T13:19:50;3.50;;;0.70;;
79410;SDS011;69635;50.964;6.948;2023-04-24T13:22:16;3.70;;;0.55;;
79410;SDS011;69635;50.964;6.948;2023-04-24T13:24:43;3.88;;;0.82;;
79410;SDS011;69635;50.964;6.948;2023-04-24T13:27:09;3.80;;;0.70;;
79410;SDS011;69635;50.964;6.948;2023-04-24T13:29:35;3.83;;;0.70;;
79410;SDS011;69635;50.964;6.948;2023-04-24T13:32:01;2.03;;;0.35;;
79410;SDS011;69635;50.964;6.948;2023-04-24T13:34:27;2.65;;;0.50;;
79410;SDS011;69635;50.964;6.948;2023-04-24T13:36:52;3.35;;;0.90;;
79410;SDS011;69635;50.964;6.948;2023-04-24T13:39:19;2.35;;;0.80;;
79410;SDS011;69635;50.964;6.948;2023-04-24T13:41:45;1.95;;;0.43;;
79410;SDS011;69635;50.964;6.948;2023-04-24T13:44:13;0.95;;;0.50;;
79410;SDS011;69635;50.964;6.948;2023-04-24T13:46:39;2.60;;;0.50;;
79410;SDS011;69635;50.964;6.948;2023-04-24T13:49:04;4.32;;;0.73;;
79410;SDS011;69635;50.964;6.948;2023-04-24T13:51:30;1.65;;;0.52;;
79410;SDS011;69635;50.964;6.948;2023-04-24T13:53:55;4.03;;;0.60;;
79410;SDS011;69635;50.964;6.948;2023-04-24T13:56:21;2.22;;;0.75;;
79410;SDS011;69635;50.964;6.948;2023-04-24T13:58:47;3.33;;;0.80;;
79410;SDS011;69635;50.964;6.948;2023-04-24T14:01:13;4.65;;;0.50;;
79410;SDS011;69635;50.964;6.948;2023-04-24T14:03:41;2.65;;;0.52;;
79410;SDS011;69635;50.964;6.948;2023-04-24T14:06:08;2.30;;;0.63;;
79410;SDS011;69635;50.964;6.948;2023-04-24T14:08:33;2.17;;;0.60;;
79410;SDS011;69635;50.964;6.948;2023-04-24T14:10:59;4.88;;;0.88;;
79410;SDS011;69635;50.964;6.948;2023-04-24T14:13:24;4.13;;;0.63;;
79410;SDS011;69635;50.964;6.948;2023-04-24T14:15:49;6.75;;;1.20;;
79410;SDS011;69635;50.964;6.948;2023-04-24T14:18:16;5.72;;;1.00;;
79410;SDS011;69635;50.964;6.948;2023-04-24T14:20:41;4.55;;;1.08;;
79410;SDS011;69635;50.964;6.948;2023-04-24T14:23:06;2.63;;;0.95;;
79410;SDS011;69635;50.964;6.948;2023-04-24T14:25:32;7.80;;;0.88;;
79410;SDS011;69635;50.964;6.948;2023-04-24T14:27:57;13.52;;;1.40;;
79410;SDS011;69635;50.964;6.948;2023-04-24T14:30:23;11.30;;;1.30;;
79410;SDS011;69635;50.964;6.948;2023-04-24T14:32:48;15.80;;;1.75;;
79410;SDS011;69635;50.964;6.948;2023-04-24T14:35:14;11.73;;;1.60;;
79410;SDS011;69635;50.964;6.948;2023-04-24T14:37:40;14.02;;;1.30;;
79410;SDS011;69635;50.964;6.948;2023-04-24T14:40:08;7.15;;;1.40;;
79410;SDS011;69635;50.964;6.948;2023-04-24T14:42:34;9.00;;;1.05;;
79410;SDS011;69635;50.964;6.948;2023-04-24T14:45:00;16.15;;;2.22;;
79410;SDS011;69635;50.964;6.948;2023-04-24T14:47:26;14.13;;;2.08;;
79410;SDS011;69635;50.964;6.948;2023-04-24T14:49:51;10.32;;;1.38;;
79410;SDS011;69635;50.964;6.948;2023-04-24T14:52:17;13.57;;;2.00;;
79410;SDS011;69635;50.964;6.948;2023-04-24T14:54:42;19.60;;;1.88;;
79410;SDS011;69635;50.964;6.948;2023-04-24T14:57:08;9.75;;;1.65;;
79410;SDS011;69635;50.964;6.948;2023-04-24T14:59:33;9.82;;;1.45;;